FAMM/MBD METAR and TAF weather

Enter ICAO airport designator
Station Type Date Time Source
FAMM METAR 2019/04/19 22:00 UTC NOAA

FAMM 192200Z AUTO 04005KT //// // ////// 16/13 Q1023


Station Type Date Time Source
FAMM Decoded METAR 2019/04/19 22:00 UTC NOAA

Mafikeng Intl. Ad, South Africa (FAMM) 25-47S 025-32E 1300M
Apr 19, 2019 - 06:00 PM EDT / 2019.04.19 2200 UTC
Wind: from the NE (040 degrees) at 6 MPH (5 KT):0
Temperature: 60 F (16 C)
Dew Point: 55 F (13 C)
Relative Humidity: 82%
Pressure (altimeter): 30.21 in. Hg (1023 hPa)
ob: FAMM 192200Z AUTO 04005KT //// // ////// 16/13 Q1023
cycle: 22

Station Type Date Time Source
FAMM TAF 2019/01/01 10:00 UTC NOAA

TAF FAMM 010900Z 0110/0118 04008KT 9999 BKN015
BECMG 0111/0113 34010KT BKN025 TX25/0113Z TN22/0118Z

Example: see airport list